Time;durP1;ratioP1;P1;durP2;ratioP2;P2;SDS_P1;SDS_P2;PMS_P1;PMS_P2;Temp;Humidity;BMP_temperature;BMP_pressure;BME280_temperature;BME280_humidity;BME280_pressure;Samples;Min_cycle;Max_cycle;Signal;HPM_P1;HPM_P2
2022/12/30 00:45:24;;;;;;;14.43;7.65;;;;;;;5.54;66.87;99743.53;30973258;28;97380;-69
2022/12/30 01:00:24;;;;;;;11.85;7.95;;;;;;;5.35;67.01;99750.56;30979069;28;97296;-68
2022/12/30 01:15:25;;;;;;;11.07;7.32;;;;;;;5.29;67.53;99772.31;30994793;28;96571;-68
2022/12/30 01:30:26;;;;;;;13.43;7.63;;;;;;;5.27;67.76;99784.81;30993369;28;96763;-70
2022/12/30 01:45:27;;;;;;;13.82;7.97;;;;;;;5.21;67.93;99795.97;30991943;28;96672;-68
2022/12/30 02:00:27;;;;;;;20.05;7.82;;;;;;;5.20;68.33;99799.56;30990535;28;97471;-69
2022/12/30 02:15:42;;;;;;;11.25;7.45;;;;;;;5.26;68.42;99809.53;30988467;28;97083;-68
2022/12/30 02:30:58;;;;;;;15.10;8.07;;;;;;;5.27;68.71;99834.16;30987287;28;96697;-69
2022/12/30 02:46:04;;;;;;;10.77;7.53;;;;;;;5.38;69.19;99839.25;30984758;28;97387;-69
2022/12/30 03:16:53;;;;;;;13.30;7.43;;;;;;;5.57;68.89;99865.59;30977824;28;97001;-69
2022/12/30 03:31:54;;;;;;;9.55;6.00;;;;;;;5.63;69.55;99868.63;30980732;28;96572;-69
2022/12/30 03:46:55;;;;;;;13.95;6.40;;;;;;;5.61;69.44;99882.00;30979296;28;96634;-69
2022/12/30 04:01:55;;;;;;;9.38;5.85;;;;;;;5.69;69.96;99876.81;30978746;28;96675;-69
2022/12/30 04:16:55;;;;;;;9.13;5.03;;;;;;;5.72;69.63;99905.59;30975830;28;97534;-69
2022/12/30 04:31:56;;;;;;;10.93;5.53;;;;;;;5.73;69.83;99917.84;30975555;28;96761;-69
2022/12/30 04:46:56;;;;;;;9.15;5.43;;;;;;;5.72;70.05;99944.41;30995408;28;97249;-69
2022/12/30 05:01:57;;;;;;;7.07;4.88;;;;;;;5.78;70.20;99969.44;30995839;28;98018;-69
2022/12/30 05:16:57;;;;;;;7.10;4.53;;;;;;;5.90;70.60;100002.63;30991969;28;96618;-68
2022/12/30 05:31:57;;;;;;;10.60;5.40;;;;;;;5.99;70.11;100028.25;30989682;28;97316;-69
2022/12/30 05:46:58;;;;;;;10.18;5.00;;;;;;;6.06;70.38;100044.38;30987844;28;97749;-69
2022/12/30 06:02:00;;;;;;;11.73;5.50;;;;;;;5.95;70.48;100063.84;30946905;28;100557;-70
2022/12/30 06:17:00;;;;;;;9.35;5.72;;;;;;;5.83;70.14;100067.66;30975367;28;98492;-72
2022/12/30 06:32:01;;;;;;;9.15;5.22;;;;;;;5.46;70.69;100090.34;30989414;28;97037;-73
2022/12/30 06:47:01;;;;;;;11.70;5.55;;;;;;;5.29;71.20;100107.75;30985251;28;97179;-73
2022/12/30 07:02:02;;;;;;;10.02;5.93;;;;;;;5.46;71.26;100134.44;30980232;28;96593;-73
2022/12/30 07:17:02;;;;;;;9.75;6.30;;;;;;;5.30;70.95;100154.28;30979318;28;97598;-74
2022/12/30 07:32:03;;;;;;;10.93;6.22;;;;;;;5.28;71.35;100174.75;30981403;28;97555;-74
2022/12/30 07:47:04;;;;;;;17.30;7.88;;;;;;;5.18;71.92;100187.94;30976887;28;97276;-70
2022/12/30 08:02:05;;;;;;;12.25;7.05;;;;;;;4.97;71.47;100218.84;30985800;28;97299;-69
2022/12/30 08:17:05;;;;;;;17.02;6.68;;;;;;;5.48;72.40;100231.09;30942566;28;96730;-72
2022/12/30 08:32:06;;;;;;;18.48;6.90;;;;;;;8.94;70.18;100258.38;30975028;28;97817;-70
2022/12/30 08:47:06;;;;;;;13.10;6.25;;;;;;;14.64;63.44;100294.13;30967292;28;97119;-73
2022/12/30 09:02:11;;;;;;;10.93;5.15;;;;;;;20.60;46.28;100314.06;30964329;28;97652;-68
2022/12/30 09:17:11;;;;;;;8.70;4.60;;;;;;;24.04;38.22;100324.94;30964671;28;97331;-70
2022/12/30 09:32:12;;;;;;;9.20;5.00;;;;;;;26.17;32.43;100324.84;30978447;28;97081;-68
2022/12/30 09:47:38;;;;;;;7.60;4.25;;;;;;;27.50;27.47;100324.97;30978552;28;98175;-68
2022/12/30 10:02:47;;;;;;;9.40;3.97;;;;;;;29.46;23.43;100337.13;30980698;28;96802;-66
2022/12/30 10:18:06;;;;;;;10.43;6.60;;;;;;;28.52;23.12;100337.19;30977494;28;96790;-66
2022/12/30 10:33:14;;;;;;;7.83;4.97;;;;;;;29.01;22.66;100320.88;30975925;28;97497;-69
2022/12/30 10:48:29;;;;;;;11.83;4.07;;;;;;;29.77;21.50;100301.03;30978955;28;96762;-67
2022/12/30 11:03:30;;;;;;;4.17;2.70;;;;;;;29.81;19.74;100277.34;30996427;28;97176;-69
2022/12/30 11:18:30;;;;;;;4.63;2.40;;;;;;;27.76;21.89;100286.53;30994977;28;97265;-71
2022/12/30 11:33:34;;;;;;;4.25;1.85;;;;;;;31.21;18.98;100254.59;30980128;28;96982;-70
2022/12/30 11:48:51;;;;;;;4.27;2.20;;;;;;;32.42;17.34;100246.84;30980399;28;97100;-75
2022/12/30 12:03:58;;;;;;;4.40;2.17;;;;;;;33.00;17.24;100237.53;30959263;28;97266;-76
2022/12/30 12:19:36;;;;;;;4.70;2.33;;;;;;;33.35;16.87;100226.59;30960625;28;97167;-78
2022/12/30 12:35:12;;;;;;;4.30;2.20;;;;;;;31.95;17.64;100250.75;30973124;28;97484;-72
2022/12/30 12:50:43;;;;;;;4.60;2.70;;;;;;;28.27;20.30;100234.16;30972372;28;96782;-71
2022/12/30 13:06:28;;;;;;;4.37;2.87;;;;;;;25.20;24.61;100234.53;31000221;28;98033;-78
2022/12/30 13:21:29;;;;;;;5.50;2.73;;;;;;;25.51;24.96;100228.09;30984996;28;97371;-72
2022/12/30 13:36:39;;;;;;;6.23;2.90;;;;;;;21.91;28.05;100230.69;30992754;28;97038;-77
2022/12/30 13:51:59;;;;;;;7.23;3.90;;;;;;;21.28;29.82;100219.72;30985889;28;97030;-77
2022/12/30 14:07:00;;;;;;;8.30;2.90;;;;;;;17.65;35.01;100213.84;30986678;28;96712;-75
2022/12/30 14:22:02;;;;;;;8.50;3.97;;;;;;;15.28;38.73;100220.66;30980676;28;97731;-76
2022/12/30 14:37:12;;;;;;;9.13;4.90;;;;;;;12.00;44.41;100217.94;30973092;28;97265;-74
2022/12/30 14:52:17;;;;;;;8.30;5.60;;;;;;;9.72;49.15;100233.38;30974927;28;97569;-69
2022/12/30 15:07:27;;;;;;;10.70;4.87;;;;;;;8.08;53.48;100231.50;31029112;28;97668;-66
2022/12/30 15:22:29;;;;;;;6.17;4.97;;;;;;;7.13;57.44;100209.81;31034666;28;97069;-66
2022/12/30 15:37:30;;;;;;;13.57;5.07;;;;;;;6.40;58.44;100192.81;31032364;28;97747;-66
2022/12/30 15:52:40;;;;;;;8.20;4.90;;;;;;;5.99;60.07;100205.41;31031802;28;96898;-67
2022/12/30 16:07:41;;;;;;;11.35;4.95;;;;;;;5.60;61.30;100223.88;30997709;28;97257;-66
2022/12/30 16:22:44;;;;;;;11.07;6.13;;;;;;;5.25;62.62;100233.13;31013026;28;97536;-63
2022/12/30 16:37:44;;;;;;;14.15;6.60;;;;;;;4.98;63.98;100215.25;30984279;28;97156;-63
2022/12/30 16:52:46;;;;;;;15.20;7.20;;;;;;;4.64;64.98;100213.69;30990406;28;97570;-63
2022/12/30 17:07:48;;;;;;;20.92;10.95;;;;;;;4.43;65.95;100199.69;30991475;28;97073;-63
2022/12/30 17:22:49;;;;;;;15.88;8.75;;;;;;;4.33;66.83;100182.03;30988807;28;96708;-63
2022/12/30 17:37:49;;;;;;;26.98;12.00;;;;;;;4.09;68.03;100173.53;30986728;28;96872;-63
2022/12/30 17:52:51;;;;;;;14.68;9.07;;;;;;;4.11;68.41;100179.53;30984081;28;96939;-63
2022/12/30 18:07:52;;;;;;;17.80;8.50;;;;;;;4.00;68.26;100173.34;30984164;28;96701;-64
2022/12/30 18:22:52;;;;;;;14.82;7.28;;;;;;;4.21;69.07;100140.84;30984121;28;97299;-63
2022/12/30 18:37:52;;;;;;;15.50;8.23;;;;;;;4.02;69.19;100133.69;30981301;28;98287;-64
2022/12/30 18:52:53;;;;;;;16.20;8.82;;;;;;;3.95;69.28;100109.66;30970271;28;96887;-72
2022/12/30 19:07:53;;;;;;;16.75;8.05;;;;;;;4.06;69.61;100121.94;30969983;28;97605;-69
2022/12/30 19:22:54;;;;;;;18.05;7.95;;;;;;;4.02;69.89;100091.53;30969837;28;96768;-71
2022/12/30 19:37:54;;;;;;;18.35;9.15;;;;;;;3.89;69.97;100078.53;30969241;28;97392;-72
2022/12/30 19:52:55;;;;;;;19.65;9.88;;;;;;;3.70;69.80;100072.19;30966764;28;97131;-74
2022/12/30 20:07:56;;;;;;;25.67;9.57;;;;;;;3.54;69.88;100053.34;30963583;28;99568;-70
2022/12/30 20:22:56;;;;;;;20.17;9.95;;;;;;;3.26;71.20;100050.38;30964566;28;98402;-69
2022/12/30 20:37:57;;;;;;;18.05;11.20;;;;;;;3.03;71.25;100034.69;30962662;28;96826;-70
2022/12/30 20:52:58;;;;;;;25.08;13.10;;;;;;;2.62;71.26;100030.94;30962981;28;97403;-69
2022/12/30 21:07:59;;;;;;;25.83;12.95;;;;;;;2.50;71.73;100034.56;30972782;28;97038;-70
2022/12/30 21:22:59;;;;;;;25.58;14.13;;;;;;;2.41;72.53;100023.00;30972162;28;97865;-69
2022/12/30 22:08:39;;;;;;;29.10;14.25;;;;;;;2.99;73.06;99948.19;30979947;28;97143;-70
2022/12/30 22:23:39;;;;;;;23.75;12.60;;;;;;;2.81;73.16;99948.75;30977105;28;97337;-70
2022/12/30 22:38:41;;;;;;;27.20;15.52;;;;;;;2.73;73.87;99937.19;30974573;28;96697;-73
2022/12/30 22:53:42;;;;;;;31.02;17.83;;;;;;;2.79;74.27;99918.25;30976637;28;97273;-69
2022/12/30 23:08:42;;;;;;;31.65;16.63;;;;;;;2.97;74.42;99906.22;30982261;28;96769;-70
2022/12/30 23:39:04;;;;;;;25.70;15.05;;;;;;;3.27;74.49;99878.28;30981325;28;97266;-71
2022/12/30 23:54:05;;;;;;;26.90;13.40;;;;;;;3.42;74.52;99862.97;30980321;28;98211;-71
